Time;durP1;ratioP1;P1;durP2;ratioP2;P2;SDS_P1;SDS_P2;PMS_P1;PMS_P2;Temp;Humidity;BMP_temperature;BMP_pressure;BME280_temperature;BME280_humidity;BME280_pressure;Samples;Min_cycle;Max_cycle;Signal;HPM_P1;HPM_P2
2021/12/01 00:00:27;;;;;;;26.85;16.65;;;3.00;99.90;;;;;;5093188;28;20491;-73
2021/12/01 00:02:54;;;;;;;87.53;37.03;;;3.00;99.90;;;;;;5095813;28;20047;-73
2021/12/01 00:05:28;;;;;;;91.53;36.92;;;3.00;99.90;;;;;;5095841;28;20127;-73
2021/12/01 00:07:55;;;;;;;48.08;24.65;;;3.00;99.90;;;;;;5095647;28;20077;-73
2021/12/01 00:10:23;;;;;;;40.90;20.10;;;3.00;99.90;;;;;;5094205;28;20043;-73
2021/12/01 00:12:49;;;;;;;20.92;13.75;;;2.90;99.90;;;;;;5095653;28;20048;-78
2021/12/01 00:15:15;;;;;;;37.20;17.90;;;2.80;99.90;;;;;;5095368;28;20032;-73
2021/12/01 00:17:41;;;;;;;96.78;38.78;;;2.80;99.90;;;;;;5095415;28;20123;-73
2021/12/01 00:20:11;;;;;;;31.90;18.08;;;2.70;99.90;;;;;;5095166;28;20173;-73
2021/12/01 00:22:38;;;;;;;33.80;18.17;;;2.70;99.90;;;;;;5094001;28;20144;-75
2021/12/01 00:25:06;;;;;;;28.75;18.45;;;2.70;99.90;;;;;;5095230;28;20036;-74
2021/12/01 00:27:31;;;;;;;26.55;17.85;;;2.70;99.90;;;;;;5093928;28;20526;-73
2021/12/01 00:29:57;;;;;;;29.13;19.90;;;2.80;99.90;;;;;;5095409;28;20063;-74
2021/12/01 00:32:23;;;;;;;52.22;30.02;;;2.70;99.90;;;;;;5095206;28;20123;-73
2021/12/01 00:34:50;;;;;;;47.22;26.88;;;2.80;99.90;;;;;;5093358;28;20081;-73
2021/12/01 00:37:17;;;;;;;28.13;16.95;;;2.80;99.90;;;;;;5093788;28;20384;-74
2021/12/01 00:39:43;;;;;;;29.25;16.27;;;2.80;99.90;;;;;;5094484;28;20052;-73
2021/12/01 00:42:09;;;;;;;25.52;16.35;;;2.70;99.90;;;;;;5093682;28;20461;-73
2021/12/01 00:44:36;;;;;;;30.38;18.10;;;2.60;99.90;;;;;;5095316;28;20055;-73
2021/12/01 00:49:33;;;;;;;29.10;16.92;;;2.70;99.90;;;;;;5094890;28;20050;-73
2021/12/01 00:51:59;;;;;;;23.25;15.23;;;2.80;99.90;;;;;;5094956;28;20031;-73
2021/12/01 00:54:25;;;;;;;27.55;17.50;;;2.70;99.90;;;;;;5094751;28;20542;-73
2021/12/01 00:56:52;;;;;;;26.80;17.67;;;2.70;99.90;;;;;;5093486;28;20114;-74
2021/12/01 00:59:18;;;;;;;26.73;15.57;;;2.70;99.90;;;;;;5093826;28;20139;-77
2021/12/01 01:01:45;;;;;;;30.80;17.88;;;2.70;99.90;;;;;;5093672;28;20127;-73
2021/12/01 01:04:11;;;;;;;33.63;18.38;;;2.60;99.90;;;;;;5093839;28;20085;-74
2021/12/01 01:06:40;;;;;;;23.13;14.15;;;2.60;99.90;;;;;;5075891;28;20400;-73
2021/12/01 01:09:07;;;;;;;19.35;11.93;;;2.60;99.90;;;;;;5076248;28;20032;-73
2021/12/01 01:18:05;;;;;;;27.38;15.15;;;2.40;99.90;;;;;;5094058;28;20494;-74
2021/12/01 01:19:59;;;;;;;20.50;11.48;;;2.30;99.90;;;;;;5076273;28;20088;-73
2021/12/01 01:22:25;;;;;;;15.77;10.75;;;2.40;99.90;;;;;;5094368;28;20443;-75
2021/12/01 01:24:51;;;;;;;18.20;12.23;;;2.60;99.90;;;;;;5075780;28;20543;-73
2021/12/01 01:27:17;;;;;;;20.00;12.40;;;2.60;99.90;;;;;;5094022;28;20423;-73
2021/12/01 01:29:42;;;;;;;12.73;9.10;;;2.60;99.90;;;;;;5093233;28;20067;-73
2021/12/01 01:32:08;;;;;;;12.20;8.27;;;2.70;99.90;;;;;;5073076;28;20028;-74
2021/12/01 01:34:34;;;;;;;11.38;7.82;;;2.80;99.90;;;;;;5074935;28;20047;-72
2021/12/01 01:37:00;;;;;;;12.70;8.48;;;2.90;99.90;;;;;;5092599;28;20040;-72
2021/12/01 01:39:26;;;;;;;17.35;9.18;;;3.10;99.90;;;;;;5093651;28;20189;-73
2021/12/01 01:41:54;;;;;;;16.50;8.82;;;2.80;99.90;;;;;;5094040;28;20059;-73
2021/12/01 01:44:19;;;;;;;16.08;10.10;;;2.60;99.90;;;;;;5093451;28;20054;-73
2021/12/01 01:46:45;;;;;;;16.58;10.52;;;2.50;99.90;;;;;;5093361;28;20123;-74
2021/12/01 01:49:17;;;;;;;17.88;10.15;;;2.40;99.90;;;;;;5075427;28;20036;-74
2021/12/01 01:51:45;;;;;;;11.65;7.38;;;2.40;99.90;;;;;;5093567;28;20115;-76
2021/12/01 01:54:11;;;;;;;8.50;5.80;;;2.50;99.90;;;;;;5093659;28;20040;-74
2021/12/01 01:56:37;;;;;;;7.53;5.15;;;2.50;99.90;;;;;;5075614;28;20123;-73
2021/12/01 01:59:03;;;;;;;34.50;15.38;;;2.60;99.90;;;;;;5077743;28;20040;-74
2021/12/01 02:01:46;;;;;;;25.92;13.13;;;2.60;99.90;;;;;;5109138;28;20074;-78
2021/12/01 02:04:16;;;;;;;16.70;8.68;;;2.50;99.90;;;;;;5093252;28;20047;-73
2021/12/01 02:06:46;;;;;;;42.25;22.40;;;2.30;99.90;;;;;;5093334;28;20075;-74
2021/12/01 02:09:12;;;;;;;11.68;7.88;;;2.20;99.90;;;;;;5109197;28;20042;-74
2021/12/01 02:11:39;;;;;;;11.60;6.82;;;2.20;99.90;;;;;;5093053;28;20067;-77
2021/12/01 02:14:05;;;;;;;7.55;5.03;;;2.10;99.90;;;;;;5093456;28;20028;-73
2021/12/01 02:16:31;;;;;;;22.20;12.73;;;2.20;99.90;;;;;;5075326;28;20039;-74
2021/12/01 02:18:57;;;;;;;14.48;7.45;;;2.30;99.90;;;;;;5093111;28;20150;-74
2021/12/01 02:21:28;;;;;;;26.55;14.15;;;2.40;99.90;;;;;;5109156;28;20127;-77
2021/12/01 02:24:06;;;;;;;25.95;15.18;;;2.40;99.90;;;;;;5092536;28;20040;-73
2021/12/01 02:26:36;;;;;;;11.32;6.65;;;2.50;99.90;;;;;;5093310;28;20051;-74
2021/12/01 02:29:05;;;;;;;14.00;8.48;;;2.50;99.90;;;;;;5075183;28;20043;-74
2021/12/01 02:31:36;;;;;;;15.43;9.70;;;2.40;99.90;;;;;;5075372;28;20040;-74
2021/12/01 02:34:08;;;;;;;12.52;7.93;;;2.40;99.90;;;;;;5093141;28;20040;-74
2021/12/01 02:36:35;;;;;;;16.67;9.90;;;2.30;99.90;;;;;;5075023;28;20047;-74
2021/12/01 02:39:03;;;;;;;13.18;8.55;;;2.30;99.90;;;;;;5075109;28;20090;-74
2021/12/01 02:41:31;;;;;;;8.40;5.80;;;2.30;99.90;;;;;;5093131;28;20039;-78
2021/12/01 02:43:59;;;;;;;8.20;5.15;;;2.10;99.90;;;;;;5092710;28;20117;-74
2021/12/01 02:46:25;;;;;;;8.65;5.22;;;2.10;99.90;;;;;;5092572;28;20035;-74
2021/12/01 02:48:51;;;;;;;6.82;4.07;;;2.00;99.90;;;;;;5074663;28;20075;-74
2021/12/01 02:51:19;;;;;;;9.32;4.60;;;1.90;99.90;;;;;;5074779;28;20487;-73
2021/12/01 02:53:45;;;;;;;5.07;3.88;;;1.90;99.90;;;;;;5075080;28;20491;-74
2021/12/01 02:56:11;;;;;;;5.45;3.50;;;2.00;99.90;;;;;;5108836;28;20043;-74
2021/12/01 02:58:40;;;;;;;5.60;3.55;;;2.00;99.90;;;;;;5092793;28;20055;-74
2021/12/01 03:01:17;;;;;;;4.60;3.22;;;2.10;99.90;;;;;;5092248;28;20040;-74
2021/12/01 03:03:43;;;;;;;3.75;2.92;;;2.10;99.90;;;;;;5092252;28;20133;-74
2021/12/01 03:06:10;;;;;;;4.07;2.95;;;2.10;99.90;;;;;;5092762;28;20035;-74
2021/12/01 03:08:37;;;;;;;5.60;2.67;;;2.10;99.90;;;;;;5092420;28;20040;-74
2021/12/01 03:11:03;;;;;;;4.05;2.80;;;2.10;99.90;;;;;;5092264;28;20035;-74
2021/12/01 03:13:29;;;;;;;5.78;3.05;;;2.10;99.90;;;;;;5092606;28;20044;-74
2021/12/01 03:15:58;;;;;;;5.88;4.28;;;2.00;99.90;;;;;;5074511;28;20112;-74
2021/12/01 03:18:24;;;;;;;4.72;3.35;;;2.00;99.90;;;;;;5092493;28;20384;-74
2021/12/01 03:20:52;;;;;;;6.22;2.70;;;1.90;99.90;;;;;;5074775;28;20043;-74
2021/12/01 03:23:18;;;;;;;6.90;4.32;;;1.80;99.90;;;;;;5092526;28;20032;-74
2021/12/01 03:25:45;;;;;;;5.38;3.30;;;1.90;99.90;;;;;;5074368;28;20524;-75
2021/12/01 03:28:11;;;;;;;6.28;3.75;;;2.00;99.90;;;;;;5092508;28;20119;-74
2021/12/01 03:30:38;;;;;;;5.93;3.53;;;2.00;99.90;;;;;;5073857;28;20484;-74
2021/12/01 03:33:08;;;;;;;8.57;4.38;;;2.00;99.90;;;;;;5092133;28;20040;-74
2021/12/01 03:35:36;;;;;;;8.07;3.80;;;1.90;99.90;;;;;;5094950;28;20550;-74
2021/12/01 03:38:02;;;;;;;3.25;2.42;;;1.70;99.90;;;;;;5096248;28;20097;-75
2021/12/01 03:40:28;;;;;;;3.47;2.08;;;1.80;99.90;;;;;;5096107;28;20450;-74
2021/12/01 03:42:54;;;;;;;3.25;2.15;;;1.80;99.90;;;;;;5078046;28;20073;-74
2021/12/01 03:45:19;;;;;;;5.43;2.60;;;1.70;99.90;;;;;;5096113;28;20131;-74
2021/12/01 03:47:46;;;;;;;2.72;2.42;;;1.70;99.90;;;;;;5094105;28;20028;-74
2021/12/01 03:50:13;;;;;;;5.15;3.00;;;1.60;99.90;;;;;;5067391;28;20039;-74
2021/12/01 03:52:39;;;;;;;3.97;2.60;;;1.80;99.90;;;;;;5055559;28;20125;-73
2021/12/01 03:55:06;;;;;;;4.07;2.35;;;1.90;99.90;;;;;;5074087;28;20047;-74
2021/12/01 03:57:33;;;;;;;2.97;1.83;;;2.00;99.90;;;;;;5056297;28;20082;-74
2021/12/01 03:59:59;;;;;;;2.33;1.63;;;2.00;99.90;;;;;;5074367;28;20052;-74
2021/12/01 04:02:24;;;;;;;4.30;1.73;;;2.00;99.90;;;;;;5073080;28;20504;-74
2021/12/01 04:04:52;;;;;;;3.80;1.50;;;2.10;99.90;;;;;;5091985;28;20086;-73
2021/12/01 04:07:17;;;;;;;2.10;1.67;;;2.20;99.90;;;;;;5092497;28;20548;-74
2021/12/01 04:09:45;;;;;;;2.30;1.50;;;2.10;99.90;;;;;;5086887;28;20048;-74
2021/12/01 04:12:11;;;;;;;2.80;1.75;;;2.10;99.90;;;;;;5080793;28;20071;-74
2021/12/01 04:14:37;;;;;;;3.28;1.83;;;2.30;99.90;;;;;;5093931;28;20495;-73
2021/12/01 04:17:04;;;;;;;3.65;2.17;;;2.40;99.90;;;;;;5093836;28;20032;-74
2021/12/01 04:19:30;;;;;;;9.98;4.00;;;2.40;99.90;;;;;;5093686;28;20040;-74
2021/12/01 04:21:56;;;;;;;3.08;2.08;;;2.50;99.90;;;;;;5094822;28;20160;-74
2021/12/01 04:24:22;;;;;;;2.80;1.48;;;2.50;99.90;;;;;;5095443;28;20225;-74
2021/12/01 04:26:48;;;;;;;3.05;1.50;;;2.50;99.90;;;;;;5077543;28;20032;-74
2021/12/01 04:29:13;;;;;;;3.17;2.20;;;2.50;99.90;;;;;;5076944;28;20043;-74
2021/12/01 04:31:40;;;;;;;1.67;1.13;;;2.60;99.90;;;;;;5095224;28;20096;-74
2021/12/01 04:34:07;;;;;;;1.73;1.40;;;2.70;99.90;;;;;;5095388;28;20407;-74
2021/12/01 04:36:36;;;;;;;4.10;2.75;;;2.70;99.90;;;;;;5094949;28;20051;-74
2021/12/01 04:39:05;;;;;;;8.00;3.55;;;2.80;99.90;;;;;;5093723;28;20052;-73
2021/12/01 04:41:36;;;;;;;2.75;1.65;;;2.80;99.90;;;;;;5094988;28;20035;-74
2021/12/01 04:44:08;;;;;;;5.80;3.58;;;2.80;99.90;;;;;;5095066;28;20043;-74
2021/12/01 04:46:42;;;;;;;3.10;1.80;;;2.80;99.90;;;;;;5076033;28;20498;-74
2021/12/01 04:49:08;;;;;;;3.97;3.10;;;2.80;99.90;;;;;;5094940;28;20054;-76
2021/12/01 04:51:35;;;;;;;3.58;1.45;;;2.80;99.90;;;;;;5094865;28;20063;-74
2021/12/01 04:54:02;;;;;;;9.43;5.05;;;2.80;99.90;;;;;;5093309;28;20050;-74
2021/12/01 04:56:28;;;;;;;14.07;6.65;;;2.80;99.90;;;;;;5094807;28;20556;-74
2021/12/01 04:58:54;;;;;;;15.10;8.10;;;2.80;99.90;;;;;;5094649;28;20040;-77
2021/12/01 05:01:20;;;;;;;9.48;5.82;;;2.80;99.90;;;;;;5094302;28;20191;-74
2021/12/01 05:03:45;;;;;;;6.45;3.33;;;2.80;99.90;;;;;;5076917;28;20071;-74
2021/12/01 05:06:13;;;;;;;3.28;1.88;;;2.80;99.90;;;;;;5094630;28;20403;-75
2021/12/01 05:08:39;;;;;;;1.92;1.10;;;2.80;99.90;;;;;;5094661;28;20048;-73
2021/12/01 05:11:05;;;;;;;1.77;1.10;;;2.80;99.90;;;;;;5076320;28;20043;-75
2021/12/01 05:13:31;;;;;;;3.42;1.88;;;2.80;99.90;;;;;;5075926;28;20036;-74
2021/12/01 05:15:57;;;;;;;5.70;3.28;;;2.70;99.90;;;;;;5094140;28;20051;-74
2021/12/01 05:18:23;;;;;;;3.65;2.45;;;2.70;99.90;;;;;;5094213;28;20047;-73
2021/12/01 05:20:49;;;;;;;5.22;2.10;;;2.70;99.90;;;;;;5076142;28;20182;-78
2021/12/01 05:23:15;;;;;;;2.05;1.40;;;2.80;99.90;;;;;;5094290;28;20044;-75
2021/12/01 05:25:42;;;;;;;2.10;1.23;;;2.70;99.90;;;;;;5094026;28;20032;-74
2021/12/01 05:28:08;;;;;;;4.03;3.00;;;2.80;99.90;;;;;;5075759;28;20032;-74
2021/12/01 05:30:34;;;;;;;2.60;1.60;;;2.70;99.90;;;;;;5093972;28;20028;-74
2021/12/01 05:33:05;;;;;;;3.38;1.42;;;2.70;99.90;;;;;;5093593;28;20131;-74
2021/12/01 05:35:32;;;;;;;2.25;1.40;;;2.70;99.90;;;;;;5093673;28;20523;-74
2021/12/01 05:37:57;;;;;;;2.13;1.35;;;2.70;99.90;;;;;;5093526;28;20135;-77
2021/12/01 05:40:24;;;;;;;2.30;1.45;;;2.70;99.90;;;;;;5093518;28;20126;-74
2021/12/01 05:42:49;;;;;;;4.10;1.30;;;2.70;99.90;;;;;;5075392;28;20043;-73
2021/12/01 05:45:16;;;;;;;2.17;1.40;;;2.70;99.90;;;;;;5093962;28;20040;-75
2021/12/01 05:47:42;;;;;;;2.03;1.25;;;2.70;99.90;;;;;;5093735;28;20039;-73
2021/12/01 05:50:07;;;;;;;2.95;1.70;;;2.60;99.90;;;;;;5093466;28;20040;-74
2021/12/01 05:52:33;;;;;;;2.38;1.45;;;2.60;99.90;;;;;;5074171;28;20040;-73
2021/12/01 05:54:59;;;;;;;1.40;1.17;;;2.70;99.90;;;;;;5093549;28;20030;-73
2021/12/01 05:57:25;;;;;;;1.73;1.40;;;2.70;99.90;;;;;;5093632;28;20111;-74
2021/12/01 05:59:51;;;;;;;2.20;1.52;;;2.60;99.90;;;;;;5075060;28;20131;-73
2021/12/01 06:02:17;;;;;;;1.83;1.25;;;2.60;99.90;;;;;;5093730;28;20114;-73
2021/12/01 06:04:43;;;;;;;2.20;1.30;;;2.50;99.90;;;;;;5075472;28;20132;-75
2021/12/01 06:07:09;;;;;;;1.95;1.20;;;2.60;99.90;;;;;;5075048;28;20032;-72
2021/12/01 06:09:35;;;;;;;1.45;1.10;;;2.60;99.90;;;;;;5092664;28;20043;-74
2021/12/01 06:12:01;;;;;;;1.95;1.30;;;2.50;99.90;;;;;;5074643;28;20125;-73
2021/12/01 06:14:27;;;;;;;2.33;1.45;;;2.50;99.90;;;;;;5074549;28;20032;-73
2021/12/01 06:16:54;;;;;;;4.93;3.15;;;2.60;99.90;;;;;;5074268;28;20044;-73
2021/12/01 06:19:20;;;;;;;4.75;2.90;;;2.40;99.90;;;;;;5092673;28;20046;-73
2021/12/01 06:21:46;;;;;;;3.17;1.85;;;2.40;99.90;;;;;;5109056;28;20051;-74
2021/12/01 06:24:12;;;;;;;4.82;2.45;;;2.40;99.90;;;;;;5093297;28;20032;-73
2021/12/01 06:26:38;;;;;;;4.60;2.47;;;2.40;99.90;;;;;;5093270;28;20507;-73
2021/12/01 06:29:04;;;;;;;3.17;2.03;;;2.50;99.90;;;;;;5074950;28;20067;-73
2021/12/01 06:31:30;;;;;;;4.65;2.90;;;2.20;99.90;;;;;;5075197;28;20491;-73
2021/12/01 06:33:58;;;;;;;6.25;3.03;;;2.00;99.90;;;;;;5088450;28;20405;-73
2021/12/01 06:36:24;;;;;;;4.25;2.40;;;2.00;99.90;;;;;;5081446;28;20070;-72
2021/12/01 06:38:50;;;;;;;4.10;2.28;;;2.00;99.90;;;;;;5075188;28;20101;-72
2021/12/01 06:41:16;;;;;;;5.00;3.05;;;2.10;99.90;;;;;;5063922;28;20037;-72
2021/12/01 06:43:42;;;;;;;7.03;3.80;;;2.20;99.90;;;;;;5071392;28;20084;-72
2021/12/01 06:46:08;;;;;;;5.70;3.05;;;2.20;99.90;;;;;;5072703;28;20128;-72
2021/12/01 06:48:33;;;;;;;6.32;2.53;;;2.10;99.90;;;;;;5072767;28;20500;-72
2021/12/01 06:50:59;;;;;;;4.07;2.28;;;2.20;99.90;;;;;;5054625;28;20135;-72
2021/12/01 06:53:26;;;;;;;6.30;3.45;;;2.30;99.90;;;;;;5054575;28;20492;-72
2021/12/01 06:55:53;;;;;;;6.10;3.70;;;2.30;99.90;;;;;;5072419;28;20045;-73
2021/12/01 06:58:19;;;;;;;6.50;4.10;;;2.50;99.90;;;;;;5054406;28;20072;-73
2021/12/01 07:00:45;;;;;;;6.05;3.33;;;2.50;99.90;;;;;;5055029;28;20044;-73
2021/12/01 07:03:11;;;;;;;4.35;2.80;;;2.60;99.90;;;;;;5057210;28;20035;-73
2021/12/01 07:05:37;;;;;;;4.55;2.65;;;2.60;99.90;;;;;;5092630;28;20047;-73
2021/12/01 07:08:04;;;;;;;3.72;2.28;;;2.70;99.90;;;;;;5073242;28;20422;-74
2021/12/01 07:10:30;;;;;;;3.95;2.30;;;2.80;99.90;;;;;;5068192;28;20044;-74
2021/12/01 07:12:56;;;;;;;4.13;2.35;;;2.80;99.90;;;;;;5076629;28;20051;-75
2021/12/01 07:15:22;;;;;;;3.28;2.35;;;2.90;99.90;;;;;;5076171;28;20433;-74
2021/12/01 07:17:48;;;;;;;2.85;2.08;;;2.90;99.90;;;;;;5076102;28;20368;-74
2021/12/01 07:20:15;;;;;;;3.65;2.28;;;2.90;99.90;;;;;;5074985;28;20047;-74
2021/12/01 07:22:42;;;;;;;3.65;2.60;;;2.90;99.90;;;;;;5075237;28;20043;-74
2021/12/01 07:25:08;;;;;;;6.55;4.53;;;2.90;99.90;;;;;;5075935;28;20121;-74
2021/12/01 07:27:35;;;;;;;5.38;3.95;;;2.90;99.90;;;;;;5076435;28;20028;-74
2021/12/01 07:30:01;;;;;;;4.72;3.38;;;3.00;99.90;;;;;;5075619;28;20210;-74
2021/12/01 07:32:27;;;;;;;10.65;5.30;;;2.90;99.90;;;;;;5058120;28;20082;-74
2021/12/01 07:34:53;;;;;;;8.77;4.30;;;2.90;99.90;;;;;;5076068;28;20430;-74
2021/12/01 07:37:19;;;;;;;2.78;1.90;;;2.90;99.90;;;;;;5076024;28;20090;-73
2021/12/01 07:39:46;;;;;;;3.70;2.30;;;3.20;99.90;;;;;;5075599;28;20048;-72
2021/12/01 07:42:13;;;;;;;13.25;8.52;;;3.50;99.90;;;;;;5058175;28;20123;-74
2021/12/01 07:44:39;;;;;;;18.25;12.07;;;3.60;99.90;;;;;;5075339;28;20098;-73
2021/12/01 07:47:05;;;;;;;17.58;12.35;;;3.50;99.90;;;;;;5057806;28;20044;-74
2021/12/01 07:49:31;;;;;;;18.08;11.88;;;3.20;99.90;;;;;;5057830;28;20041;-74
2021/12/01 07:51:57;;;;;;;20.27;13.30;;;3.20;99.90;;;;;;5091403;28;20090;-74
2021/12/01 07:54:23;;;;;;;18.10;11.93;;;3.30;99.90;;;;;;5075758;28;20120;-73
2021/12/01 07:56:50;;;;;;;13.20;8.15;;;3.40;99.90;;;;;;5075889;28;20079;-74
2021/12/01 07:59:16;;;;;;;11.38;7.20;;;3.30;99.90;;;;;;5057504;28;20059;-73
2021/12/01 08:01:43;;;;;;;10.02;6.47;;;3.20;99.90;;;;;;5075396;28;20056;-73
2021/12/01 08:04:10;;;;;;;8.10;5.05;;;3.40;99.90;;;;;;5075580;28;20036;-72
2021/12/01 08:06:37;;;;;;;6.55;3.30;;;3.70;99.90;;;;;;5087139;28;20395;-73
2021/12/01 08:09:04;;;;;;;4.97;2.60;;;3.70;99.90;;;;;;5095854;28;20024;-73
2021/12/01 08:11:30;;;;;;;5.32;2.40;;;3.90;99.90;;;;;;5109019;28;20042;-73
2021/12/01 08:13:55;;;;;;;5.25;3.58;;;4.00;99.90;;;;;;5116017;28;20036;-74
2021/12/01 08:16:21;;;;;;;10.13;4.80;;;4.20;99.90;;;;;;5116032;28;20574;-73
2021/12/01 08:18:51;;;;;;;14.73;10.85;;;4.00;99.90;;;;;;5115960;28;20470;-76
2021/12/01 08:21:18;;;;;;;18.05;13.00;;;3.80;99.90;;;;;;5103072;28;20052;-73
2021/12/01 08:23:44;;;;;;;20.65;12.48;;;3.60;99.90;;;;;;5082199;28;20040;-73
2021/12/01 08:26:10;;;;;;;20.05;14.27;;;3.40;99.90;;;;;;5073200;28;20083;-73
2021/12/01 08:28:35;;;;;;;18.02;12.32;;;3.30;99.90;;;;;;5089601;28;20508;-73
2021/12/01 08:31:01;;;;;;;20.55;12.75;;;3.30;99.90;;;;;;5075293;28;20101;-74
2021/12/01 08:33:27;;;;;;;11.00;7.28;;;3.30;99.90;;;;;;5057217;28;20064;-75
2021/12/01 08:35:53;;;;;;;18.85;13.38;;;3.40;99.90;;;;;;5074588;28;20048;-74
2021/12/01 08:38:19;;;;;;;24.50;15.73;;;3.40;99.90;;;;;;5074818;28;20463;-73
2021/12/01 08:40:45;;;;;;;13.32;9.10;;;3.40;99.90;;;;;;5074788;28;20404;-73
2021/12/01 08:43:11;;;;;;;16.02;10.77;;;3.50;99.90;;;;;;5074934;28;20029;-73
2021/12/01 08:45:37;;;;;;;19.45;12.50;;;3.50;99.90;;;;;;5090496;28;20048;-73
2021/12/01 08:48:05;;;;;;;12.60;9.00;;;3.60;99.90;;;;;;5074894;28;20153;-73
2021/12/01 08:50:31;;;;;;;11.65;8.27;;;3.60;99.90;;;;;;5056725;28;20450;-74
2021/12/01 08:52:58;;;;;;;9.68;6.80;;;3.70;99.90;;;;;;5056610;28;20068;-76
2021/12/01 08:55:24;;;;;;;8.32;5.63;;;3.90;99.90;;;;;;5074835;28;20403;-73
2021/12/01 08:57:50;;;;;;;12.48;7.53;;;3.80;99.90;;;;;;5057097;28;20036;-74
2021/12/01 09:00:18;;;;;;;14.15;8.27;;;3.80;99.90;;;;;;5074643;28;20398;-73
2021/12/01 09:02:44;;;;;;;31.50;19.52;;;3.80;99.90;;;;;;5056623;28;20135;-72
2021/12/01 09:05:10;;;;;;;18.60;10.70;;;3.90;99.90;;;;;;5074387;28;20123;-75
2021/12/01 09:07:36;;;;;;;19.50;12.95;;;3.90;99.90;;;;;;5074407;28;20036;-73
2021/12/01 09:10:03;;;;;;;17.60;10.48;;;3.80;99.90;;;;;;5108684;27;20039;-73
2021/12/01 09:12:29;;;;;;;10.70;7.07;;;3.80;99.90;;;;;;5098684;28;20064;-73
2021/12/01 09:14:56;;;;;;;14.85;8.35;;;3.80;99.90;;;;;;5102516;28;20064;-73
2021/12/01 09:17:23;;;;;;;9.32;5.25;;;3.80;99.90;;;;;;5105899;28;20038;-74
2021/12/01 09:19:50;;;;;;;7.25;4.85;;;3.90;99.90;;;;;;5105869;28;20096;-74
2021/12/01 09:22:17;;;;;;;8.18;5.72;;;4.10;99.90;;;;;;5114893;28;20036;-73
2021/12/01 09:24:44;;;;;;;8.10;4.95;;;4.20;99.90;;;;;;5102676;28;20122;-73
2021/12/01 09:27:10;;;;;;;9.82;5.75;;;4.20;99.90;;;;;;5094406;28;20039;-73
2021/12/01 09:29:36;;;;;;;11.57;6.20;;;4.10;99.90;;;;;;5075650;28;20530;-74
2021/12/01 09:32:03;;;;;;;11.82;6.88;;;4.10;99.90;;;;;;5080988;28;20044;-75
2021/12/01 09:34:29;;;;;;;10.23;6.95;;;4.20;99.90;;;;;;5101777;28;20064;-73
2021/12/01 09:36:56;;;;;;;13.00;8.23;;;4.30;99.90;;;;;;5092544;28;20051;-73
2021/12/01 09:39:23;;;;;;;13.93;8.40;;;4.30;99.90;;;;;;5089981;28;20043;-73
2021/12/01 09:41:51;;;;;;;16.55;9.18;;;4.30;99.90;;;;;;5076612;28;20036;-74
2021/12/01 09:44:17;;;;;;;15.02;8.95;;;4.30;99.90;;;;;;5090330;28;20096;-73
2021/12/01 09:46:43;;;;;;;12.00;6.20;;;4.40;99.90;;;;;;5106379;28;20036;-73
2021/12/01 09:49:10;;;;;;;12.23;8.07;;;4.50;99.90;;;;;;5092310;28;20043;-73
2021/12/01 09:51:36;;;;;;;31.85;19.85;;;4.60;99.90;;;;;;5072457;28;20040;-73
2021/12/01 09:54:03;;;;;;;24.65;17.65;;;4.70;99.90;;;;;;5090885;28;20040;-74
2021/12/01 09:56:30;;;;;;;17.92;11.80;;;4.70;99.90;;;;;;5072666;28;20040;-74
2021/12/01 09:58:57;;;;;;;16.13;11.80;;;4.60;99.90;;;;;;5090349;28;20044;-73
2021/12/01 10:01:24;;;;;;;19.75;12.88;;;4.50;99.90;;;;;;5090211;28;20193;-73
2021/12/01 10:03:51;;;;;;;8.38;5.85;;;4.50;99.90;;;;;;5090319;28;20078;-74
2021/12/01 10:06:19;;;;;;;10.38;5.03;;;4.60;99.90;;;;;;5090389;28;20097;-73
2021/12/01 10:08:46;;;;;;;7.45;4.30;;;4.70;99.90;;;;;;5090256;28;20039;-77
2021/12/01 10:11:18;;;;;;;6.70;4.40;;;4.80;99.90;;;;;;5075036;28;20051;-74
2021/12/01 10:13:49;;;;;;;10.57;4.65;;;4.80;99.90;;;;;;5072331;28;20035;-74
2021/12/01 10:16:17;;;;;;;10.80;3.75;;;4.80;99.90;;;;;;5072481;28;20094;-73
2021/12/01 10:18:48;;;;;;;5.88;4.03;;;4.70;99.90;;;;;;5091234;28;20043;-81
2021/12/01 10:21:18;;;;;;;8.32;4.30;;;4.60;99.90;;;;;;5072122;28;20040;-72
2021/12/01 10:23:56;;;;;;;7.35;4.10;;;4.60;99.90;;;;;;5072008;28;20031;-72
2021/12/01 10:26:34;;;;;;;6.82;4.60;;;4.60;99.90;;;;;;5071621;28;20044;-82
2021/12/01 10:29:06;;;;;;;6.90;4.85;;;4.60;99.90;;;;;;5093778;28;20043;-82
2021/12/01 10:31:42;;;;;;;11.50;7.35;;;4.60;99.90;;;;;;5091476;28;20045;-72
2021/12/01 10:34:13;;;;;;;12.50;9.07;;;4.60;99.90;;;;;;5091255;28;20036;-76
2021/12/01 10:36:39;;;;;;;11.90;8.50;;;4.50;99.90;;;;;;5101548;28;20586;-79
2021/12/01 10:39:06;;;;;;;12.90;8.20;;;4.40;99.90;;;;;;5079649;28;20119;-72
2021/12/01 10:41:37;;;;;;;12.88;8.60;;;4.40;99.90;;;;;;5080318;28;20054;-72
2021/12/01 10:44:17;;;;;;;12.55;7.90;;;4.40;99.90;;;;;;5112882;28;20123;-76
2021/12/01 10:46:51;;;;;;;9.88;7.30;;;4.40;99.90;;;;;;5085542;28;20047;-72
2021/12/01 10:49:34;;;;;;;10.45;7.00;;;4.50;99.90;;;;;;5103843;28;20040;-73
2021/12/01 10:52:01;;;;;;;10.80;7.38;;;4.50;99.90;;;;;;5094978;28;20065;-73
2021/12/01 10:54:27;;;;;;;13.65;7.60;;;4.40;99.90;;;;;;5093152;28;20067;-71
2021/12/01 10:57:19;;;;;;;13.55;7.35;;;4.40;99.90;;;;;;5107172;28;20046;-73
2021/12/01 10:59:47;;;;;;;11.77;7.28;;;4.30;99.90;;;;;;5085405;28;20051;-73
2021/12/01 11:02:13;;;;;;;9.70;6.13;;;4.20;99.90;;;;;;5093518;28;20131;-72
2021/12/01 11:04:50;;;;;;;11.15;6.93;;;4.20;99.90;;;;;;5094400;28;20082;-70
2021/12/01 11:07:30;;;;;;;11.98;7.38;;;4.10;99.90;;;;;;5106164;28;20040;-70
2021/12/01 11:10:18;;;;;;;13.30;7.15;;;4.20;99.90;;;;;;5093921;28;20127;-73
2021/12/01 11:12:54;;;;;;;8.85;6.18;;;4.40;99.90;;;;;;5072714;28;20043;-70
2021/12/01 11:15:27;;;;;;;13.55;6.03;;;4.50;99.90;;;;;;5092668;28;20420;-70
2021/12/01 11:17:54;;;;;;;7.32;5.40;;;4.50;99.90;;;;;;5093067;28;20036;-70
2021/12/01 11:20:44;;;;;;;75.35;47.10;;;4.60;99.90;;;;;;5093006;28;20147;-70
2021/12/01 11:23:19;;;;;;;156.05;86.15;;;4.70;99.90;;;;;;5093099;28;20043;-70
2021/12/01 11:26:04;;;;;;;52.40;32.22;;;4.70;99.90;;;;;;5091627;28;20040;-70
2021/12/01 11:28:32;;;;;;;24.83;18.92;;;4.70;99.90;;;;;;5093021;28;20032;-71
2021/12/01 11:31:01;;;;;;;32.28;20.50;;;4.70;99.90;;;;;;5092928;28;20055;-70
2021/12/01 11:33:29;;;;;;;31.40;18.90;;;4.70;99.90;;;;;;5092918;28;20127;-70
2021/12/01 11:35:57;;;;;;;22.88;13.63;;;4.70;99.90;;;;;;5092542;28;20433;-71
2021/12/01 11:38:24;;;;;;;15.80;10.57;;;4.80;99.90;;;;;;5074441;28;20043;-70
2021/12/01 11:40:51;;;;;;;14.70;8.73;;;4.80;99.90;;;;;;5074505;28;20048;-70
2021/12/01 11:43:18;;;;;;;13.98;7.65;;;4.80;99.90;;;;;;5074829;28;20448;-69
2021/12/01 11:45:46;;;;;;;8.05;5.60;;;4.80;99.90;;;;;;5092263;28;20044;-71
2021/12/01 11:48:34;;;;;;;9.63;6.25;;;4.80;99.90;;;;;;5092422;28;20047;-72
2021/12/01 11:51:02;;;;;;;13.63;9.13;;;4.80;99.90;;;;;;5094054;28;20478;-71
2021/12/01 11:53:37;;;;;;;15.25;7.15;;;4.90;99.90;;;;;;5090629;28;20043;-72
2021/12/01 11:56:14;;;;;;;11.48;7.35;;;4.70;99.90;;;;;;5107153;28;20417;-70
2021/12/01 11:58:44;;;;;;;10.70;7.22;;;4.80;99.90;;;;;;5094192;28;20126;-71
2021/12/01 12:01:22;;;;;;;12.05;8.07;;;4.70;99.90;;;;;;5095737;28;20079;-70
2021/12/01 12:04:10;;;;;;;10.85;7.68;;;4.80;99.90;;;;;;5101986;28;20039;-70
2021/12/01 12:06:58;;;;;;;12.45;8.60;;;4.70;99.90;;;;;;5099671;28;20085;-70
2021/12/01 12:09:25;;;;;;;13.80;9.30;;;4.80;99.90;;;;;;5086277;28;20050;-71
2021/12/01 12:11:55;;;;;;;12.60;8.25;;;4.90;99.90;;;;;;5103019;28;20039;-71
2021/12/01 12:14:34;;;;;;;11.82;7.78;;;4.90;99.90;;;;;;5087089;28;20040;-72
2021/12/01 12:17:00;;;;;;;14.38;7.80;;;5.10;99.90;;;;;;5083682;28;20376;-74
2021/12/01 12:19:48;;;;;;;9.05;6.38;;;5.20;99.90;;;;;;5086993;28;20079;-72
2021/12/01 12:22:22;;;;;;;12.10;6.72;;;5.30;99.90;;;;;;5091844;28;20148;-75
2021/12/01 12:24:55;;;;;;;10.30;6.68;;;5.30;99.90;;;;;;5091430;28;20503;-80
2021/12/01 12:27:37;;;;;;;11.00;8.02;;;5.30;99.90;;;;;;5094326;28;20088;-73
2021/12/01 12:30:10;;;;;;;10.68;6.68;;;5.30;99.90;;;;;;5093790;28;20395;-72
2021/12/01 12:32:36;;;;;;;21.23;13.85;;;5.40;99.90;;;;;;5093478;28;20059;-71
2021/12/01 12:35:07;;;;;;;20.98;15.07;;;5.40;99.90;;;;;;5074733;28;20036;-74
2021/12/01 12:37:33;;;;;;;;;;;5.40;99.90;;;;;;5109915;28;20031;-77
2021/12/01 12:40:00;;;;;;;16.45;12.02;;;5.40;99.90;;;;;;5089758;28;19916;-73
2021/12/01 12:42:27;;;;;;;26.92;14.20;;;5.50;99.90;;;;;;5084447;28;20040;-72
2021/12/01 12:44:58;;;;;;;17.63;11.02;;;5.70;99.90;;;;;;5103895;28;20080;-77
2021/12/01 12:47:26;;;;;;;;;;;5.80;99.90;;;;;;5103963;28;20499;-73
2021/12/01 12:49:54;;;;;;;12.07;8.65;;;5.60;99.90;;;;;;5100860;28;19934;-71
2021/12/01 12:52:26;;;;;;;22.08;12.85;;;5.60;99.90;;;;;;5103365;28;20044;-82
2021/12/01 12:54:55;;;;;;;27.45;13.88;;;5.70;99.90;;;;;;5108833;28;20040;-74
2021/12/01 12:57:23;;;;;;;27.20;13.63;;;5.70;99.90;;;;;;5087724;28;20093;-82
2021/12/01 12:59:49;;;;;;;19.52;11.20;;;5.70;99.90;;;;;;5072809;28;20048;-82
2021/12/01 13:02:15;;;;;;;17.25;9.63;;;5.70;99.90;;;;;;5076695;28;20051;-78